Fishers Island, NY

11:56 AM EDT on August 29, 2014 (GMT -0400)
Hawks Nest Point | Change Station
CLOSE
Current Station
Personal Weather Station
Location: Fishers Island, NY
Elevation: 91 ft
Nearby Weather Stations

Elev 91 ft 41.27 °N, 72.01 °W | Updated 24 seconds ago

Clear
Clear
70.3 °F
Feels Like 75 °F
N
6.0
Wind Variable Wind from South
Gusts 6.0 mph

Today
High -- | Low -- °F
--% Chance of Precip.
Yesterday
High -- | Low -- °F
Precip. -- in
6:11 AM 7:25 PM
Waxing Crescent, 15% visible
Pressure 30.17 in
Visibility 10.0 miles
Clouds Clear
Heat Index 75 °F
Dew Point 59 °F
Humidity 67%
Rainfall 0.00 in
Snow Depth Not available.
UV 8 out of 12
Pollen 7.90 out of 12
Air Quality Not available.
Flu Activity Not available.
METAR KGON 291456Z 00000KT 10SM CLR 21/12 A3017 RMK AO2 SLP217 T02110117 51014

More Conditions Fewer Conditions

Pressure 30.17 in
Visibility 10.0 miles
Clouds Clear
Heat Index 75 °F
Dew Point 59 °F
Humidity 67%
Rainfall 0.00 in
Snow Depth Not available.
UV 8 out of 12
Pollen 7.90 out of 12
Air Quality Not available.
Flu Activity Not available.
METAR KGON 291456Z 00000KT 10SM CLR 21/12 A3017 RMK AO2 SLP217 T02110117 51014

More Conditions Fewer Conditions

10-Day Weather Forecast

Almanac

Astronomy

Aug. 29, 2014 Rise Set
Actual Time 6:11 AM EDT 7:25 PM EDT
Civil Twilight 5:42 AM EDT 7:54 PM EDT
Nautical Twilight 5:08 AM EDT 8:28 PM EDT
Astronomical Twilight 4:32 AM EDT 9:04 PM EDT
Moon 10:00 AM EDT 9:18 PM EDT
Length of Visible Light 14h 11m
Length of Day
13h 14m
Tomorrow will be 2m 38s shorter.
Waxing Crescent, 15% of the Moon is Illuminated
Today
Waxing Crescent
Sep 2
First Quarter
Sep 8
Full
Sep 15
Last Quarter
Sep 24
New

Today's Extremes

State Highs State Lows

Community

WunderPhotos

Upload Photos

1,748,268 photos uploaded!

Nearby

Air Quality

  Air Quality AQ Index Pollutant
Yesterday Good
OZONE
Friday Good
OZONE
Friday Good
PM2.5

Snow Depth

Station Depth Elevation
No new snow has been reported.

Earthquake Activity

City Distance Mag. Time & Date
No recent earthquake activity has been reported nearby.
Minimum magnitude displayed is 2.5.

Coastal Water Temperatures

Place Temperature
New London, CT 69.1 °F
Newport, RI 68.0 °F
Quonset Point, RI 71.1 °F
Conimicut Light, RI 72.0 °F
Providence, RI 71.1 °F

Nearby Weather Stations